createdAt,value
2023-01-09T00:01:51.819Z,3.88
2023-01-09T00:03:53.539Z,3.97
2023-01-09T00:05:55.198Z,3.75
2023-01-09T00:07:56.867Z,4.20
2023-01-09T00:09:58.488Z,3.40
2023-01-09T00:12:00.055Z,3.45
2023-01-09T00:14:01.790Z,3.42
2023-01-09T00:16:05.895Z,3.50
2023-01-09T00:18:07.491Z,3.22
2023-01-09T00:20:11.012Z,3.50
2023-01-09T00:22:12.516Z,3.30
2023-01-09T00:24:14.056Z,3.25
2023-01-09T00:26:17.352Z,3.53
2023-01-09T00:28:18.883Z,3.58
2023-01-09T00:30:20.586Z,3.22
2023-01-09T00:32:23.578Z,2.70
2023-01-09T00:34:25.796Z,2.85
2023-01-09T00:36:28.182Z,3.05
2023-01-09T00:38:29.924Z,2.63
2023-01-09T00:40:31.654Z,2.70
2023-01-09T00:42:35.249Z,2.67
2023-01-09T00:44:40.599Z,2.10
2023-01-09T00:46:45.359Z,2.47
2023-01-09T00:48:49.082Z,2.70
2023-01-09T00:50:51.243Z,2.17
2023-01-09T00:52:55.680Z,2.20
2023-01-09T00:54:57.895Z,2.00
2023-01-09T00:56:59.630Z,2.20
2023-01-09T00:59:01.223Z,1.85
2023-01-09T01:01:03.302Z,2.55
2023-01-09T01:03:04.933Z,1.88
2023-01-09T01:05:08.865Z,1.83
2023-01-09T01:07:13.459Z,2.25
2023-01-09T01:09:15.070Z,1.83
2023-01-09T01:11:16.580Z,1.63
2023-01-09T01:13:18.095Z,2.42
2023-01-09T01:15:20.799Z,2.17
2023-01-09T01:17:22.447Z,1.67
2023-01-09T01:19:24.017Z,1.85
2023-01-09T01:21:26.959Z,1.80
2023-01-09T01:23:28.549Z,1.70
2023-01-09T01:25:30.198Z,2.13
2023-01-09T01:27:31.825Z,2.00
2023-01-09T01:29:33.377Z,2.17
2023-01-09T01:31:34.995Z,1.45
2023-01-09T01:33:36.542Z,2.00
2023-01-09T01:35:38.399Z,1.85
2023-01-09T01:37:41.399Z,2.15
2023-01-09T01:39:42.973Z,1.95
2023-01-09T01:41:44.603Z,1.60
2023-01-09T01:43:51.025Z,2.42
2023-01-09T01:45:52.669Z,1.92
2023-01-09T01:47:58.315Z,1.73
2023-01-09T01:50:04.673Z,1.70
2023-01-09T01:52:06.900Z,1.80
2023-01-09T01:54:13.573Z,2.35
2023-01-09T01:56:17.814Z,2.00
2023-01-09T01:58:20.669Z,2.00
2023-01-09T02:00:29.109Z,2.25
2023-01-09T02:02:32.297Z,1.95
2023-01-09T02:04:36.836Z,1.92
2023-01-09T02:06:39.021Z,2.05
2023-01-09T02:08:40.552Z,1.65
2023-01-09T02:10:44.816Z,1.65
2023-01-09T02:12:46.738Z,1.90
2023-01-09T02:14:56.655Z,2.05
2023-01-09T02:17:10.247Z,1.65
2023-01-09T02:19:32.628Z,1.65
2023-01-09T02:21:49.741Z,2.10
2023-01-09T02:24:22.647Z,1.50
2023-01-09T02:26:57.950Z,1.35
2023-01-09T02:29:29.826Z,1.40
2023-01-09T02:31:41.900Z,1.98
2023-01-09T02:33:54.873Z,2.00
2023-01-09T02:36:12.281Z,1.55
2023-01-09T02:38:22.669Z,1.70
2023-01-09T02:40:29.642Z,1.65
2023-01-09T02:42:31.956Z,1.90
2023-01-09T02:44:34.986Z,1.83
2023-01-09T02:46:37.898Z,2.00
2023-01-09T02:48:39.929Z,2.00
2023-01-09T02:50:47.606Z,1.90
2023-01-09T02:53:14.534Z,2.20
2023-01-09T02:55:28.426Z,2.10
2023-01-09T02:57:46.578Z,2.10
2023-01-09T02:59:59.776Z,1.58
2023-01-09T03:02:20.339Z,1.83
2023-01-09T03:04:28.267Z,1.60
2023-01-09T03:06:35.746Z,2.10
2023-01-09T03:08:41.685Z,1.85
2023-01-09T03:10:48.476Z,1.80
2023-01-09T03:12:58.909Z,2.00
2023-01-09T03:15:02.500Z,2.13
2023-01-09T03:17:10.074Z,2.10
2023-01-09T03:19:16.653Z,2.00
2023-01-09T03:21:20.052Z,1.77
2023-01-09T03:23:22.414Z,2.00
2023-01-09T03:25:25.236Z,2.20
2023-01-09T03:27:27.383Z,1.75
2023-01-09T03:29:29.638Z,1.95
2023-01-09T03:31:34.271Z,1.35
2023-01-09T03:33:35.936Z,1.63
2023-01-09T03:35:38.812Z,1.35
2023-01-09T03:37:40.299Z,1.60
2023-01-09T03:39:41.881Z,1.40
2023-01-09T03:41:43.452Z,1.65
2023-01-09T03:43:45.613Z,1.70
2023-01-09T03:45:47.303Z,1.40
2023-01-09T03:47:52.961Z,1.70
2023-01-09T03:49:54.670Z,1.75
2023-01-09T03:51:57.636Z,1.40
2023-01-09T03:53:59.210Z,1.42
2023-01-09T03:56:00.728Z,1.35
2023-01-09T03:58:02.290Z,2.05
2023-01-09T04:00:04.652Z,1.60
2023-01-09T04:02:06.702Z,1.30
2023-01-09T04:04:08.411Z,1.40
2023-01-09T04:06:10.025Z,1.63
2023-01-09T04:08:13.649Z,1.40
2023-01-09T04:10:15.914Z,1.40
2023-01-09T04:12:17.435Z,1.20
2023-01-09T04:14:19.045Z,1.60
2023-01-09T04:16:20.643Z,0.82
2023-01-09T04:18:22.319Z,0.90
2023-01-09T04:20:23.895Z,0.80
2023-01-09T04:22:28.194Z,1.17
2023-01-09T04:24:31.097Z,0.80
2023-01-09T04:26:32.659Z,1.10
2023-01-09T04:28:34.249Z,1.17
2023-01-09T04:30:35.848Z,0.93
2023-01-09T04:32:37.420Z,0.90
2023-01-09T04:34:39.005Z,0.98
2023-01-09T04:36:40.585Z,1.00
2023-01-09T04:38:42.129Z,0.93
2023-01-09T04:40:47.178Z,0.80
2023-01-09T04:42:48.765Z,1.15
2023-01-09T04:44:50.386Z,0.98
2023-01-09T04:46:52.595Z,1.30
2023-01-09T04:48:54.143Z,1.40
2023-01-09T04:50:55.722Z,1.40
2023-01-09T04:52:57.354Z,1.20
2023-01-09T04:54:58.963Z,1.52
2023-01-09T04:57:01.899Z,1.80
2023-01-09T04:59:03.885Z,1.20
2023-01-09T05:01:05.829Z,1.08
2023-01-09T05:03:07.501Z,1.17
2023-01-09T05:05:11.711Z,1.20
2023-01-09T05:07:13.547Z,1.40
2023-01-09T05:09:15.333Z,0.82
2023-01-09T05:11:17.071Z,1.40
2023-01-09T05:13:20.023Z,1.20
2023-01-09T05:15:21.641Z,0.85
2023-01-09T05:17:23.358Z,0.80
2023-01-09T05:19:25.166Z,0.90
2023-01-09T05:21:27.789Z,0.80
2023-01-09T05:23:29.329Z,1.20
2023-01-09T05:25:31.056Z,0.85
2023-01-09T05:27:32.613Z,1.52
2023-01-09T05:29:35.728Z,1.73
2023-01-09T05:31:37.361Z,1.10
2023-01-09T05:33:39.039Z,0.93
2023-01-09T05:35:40.680Z,1.20
2023-01-09T05:37:42.526Z,1.00
2023-01-09T05:39:44.157Z,1.08
2023-01-09T05:41:45.714Z,1.17
2023-01-09T05:43:47.331Z,1.25
2023-01-09T05:45:50.247Z,1.08
2023-01-09T05:47:51.797Z,1.02
2023-01-09T05:49:53.342Z,1.10
2023-01-09T05:51:54.853Z,1.30
2023-01-09T05:53:56.552Z,1.85
2023-01-09T05:55:58.161Z,1.60
2023-01-09T05:57:59.817Z,1.20
2023-01-09T06:00:01.619Z,1.40
2023-01-09T06:02:04.800Z,1.20
2023-01-09T06:04:06.800Z,1.20
2023-01-09T06:06:08.384Z,1.00
2023-01-09T06:08:10.051Z,1.05
2023-01-09T06:10:13.729Z,1.05
2023-01-09T06:12:15.316Z,1.02
2023-01-09T06:14:17.152Z,1.00
2023-01-09T06:16:18.885Z,0.90
2023-01-09T06:18:21.893Z,0.95
2023-01-09T06:20:23.504Z,1.08
2023-01-09T06:22:25.144Z,1.25
2023-01-09T06:24:26.737Z,1.08
2023-01-09T06:26:28.304Z,1.30
2023-01-09T06:28:29.910Z,1.02
2023-01-09T06:30:33.558Z,1.33
2023-01-09T06:32:35.607Z,1.30
2023-01-09T06:34:49.447Z,1.00
2023-01-09T06:36:51.291Z,1.13
2023-01-09T06:38:58.388Z,1.10
2023-01-09T06:43:34.745Z,0.98
2023-01-09T06:45:36.720Z,1.00
2023-01-09T06:49:49.748Z,1.40
2023-01-09T06:51:53.930Z,1.45
2023-01-09T06:53:56.793Z,1.30
2023-01-09T06:55:58.804Z,1.25
2023-01-09T07:00:24.398Z,1.40
2023-01-09T07:02:26.215Z,1.17
2023-01-09T07:04:28.022Z,1.42
2023-01-09T07:06:30.338Z,1.55
2023-01-09T07:08:43.567Z,1.35
2023-01-09T07:10:48.491Z,1.50
2023-01-09T07:12:53.036Z,1.50
2023-01-09T07:14:57.491Z,2.70
2023-01-09T07:16:59.661Z,1.20
2023-01-09T07:19:01.619Z,1.50
2023-01-09T07:21:06.092Z,2.00
2023-01-09T07:23:11.581Z,1.35
2023-01-09T07:25:16.626Z,1.55
2023-01-09T07:27:24.905Z,1.58
2023-01-09T07:29:26.938Z,1.65
2023-01-09T07:31:31.828Z,1.60
2023-01-09T07:33:41.376Z,1.63
2023-01-09T07:35:43.416Z,1.33
2023-01-09T07:37:46.910Z,1.80
2023-01-09T07:39:49.288Z,1.67
2023-01-09T07:41:52.768Z,1.50
2023-01-09T07:44:02.523Z,2.20
2023-01-09T07:46:04.995Z,1.42
2023-01-09T07:48:07.280Z,1.75
2023-01-09T07:50:09.976Z,1.73
2023-01-09T07:52:11.815Z,1.50
2023-01-09T07:54:14.411Z,1.02
2023-01-09T07:56:17.885Z,1.48
2023-01-09T07:58:23.758Z,1.77
2023-01-09T08:00:25.836Z,1.75
2023-01-09T08:02:28.318Z,1.60
2023-01-09T08:04:30.220Z,2.15
2023-01-09T08:06:32.389Z,2.25
2023-01-09T08:08:36.697Z,1.80
2023-01-09T08:10:38.547Z,1.90
2023-01-09T08:12:44.399Z,2.45
2023-01-09T08:14:47.833Z,2.00
2023-01-09T08:16:49.627Z,1.88
2023-01-09T08:18:59.508Z,2.30
2023-01-09T08:21:02.972Z,1.85
2023-01-09T08:23:05.234Z,1.80
2023-01-09T08:25:11.970Z,1.65
2023-01-09T08:27:14.510Z,2.03
2023-01-09T08:29:19.249Z,2.45
2023-01-09T08:31:25.841Z,1.33
2023-01-09T08:33:27.780Z,1.83
2023-01-09T08:35:33.494Z,1.90
2023-01-09T08:37:39.229Z,2.05
2023-01-09T08:39:42.648Z,1.80
2023-01-09T08:41:47.009Z,2.15
2023-01-09T08:43:51.098Z,1.50
2023-01-09T08:45:53.073Z,1.73
2023-01-09T08:47:56.842Z,2.17
2023-01-09T08:49:59.051Z,2.05
2023-01-09T08:52:08.999Z,1.70
2023-01-09T08:54:18.071Z,1.65
2023-01-09T08:56:30.574Z,2.28
2023-01-09T08:58:32.543Z,2.45
2023-01-09T09:00:34.425Z,2.08
2023-01-09T09:02:36.562Z,1.83
2023-01-09T09:04:50.929Z,1.73
2023-01-09T09:06:57.703Z,1.55
2023-01-09T09:09:02.665Z,1.20
2023-01-09T09:11:04.485Z,1.48
2023-01-09T09:13:06.434Z,1.40
2023-01-09T09:15:21.812Z,1.67
2023-01-09T09:17:23.727Z,1.80
2023-01-09T09:19:25.575Z,1.92
2023-01-09T09:21:30.861Z,1.33
2023-01-09T09:23:35.981Z,1.42
2023-01-09T09:25:41.482Z,1.60
2023-01-09T09:27:46.414Z,1.98
2023-01-09T09:29:57.799Z,1.55
2023-01-09T09:32:06.524Z,1.70
2023-01-09T09:34:37.608Z,1.33
2023-01-09T09:36:50.766Z,1.50
2023-01-09T09:38:53.070Z,1.35
2023-01-09T09:41:31.323Z,1.30
2023-01-09T09:44:11.405Z,1.80
2023-01-09T09:46:36.832Z,1.40
2023-01-09T09:48:51.148Z,1.48
2023-01-09T09:51:23.190Z,1.70
2023-01-09T09:53:37.180Z,1.40
2023-01-09T09:55:43.169Z,1.98
2023-01-09T09:57:49.183Z,1.15
2023-01-09T10:02:24.412Z,1.67
2023-01-09T10:04:30.903Z,1.33
2023-01-09T10:06:39.197Z,1.20
2023-01-09T10:11:41.557Z,1.60
2023-01-09T10:13:44.708Z,1.30
2023-01-09T10:15:57.830Z,1.33
2023-01-09T10:18:26.549Z,1.33
2023-01-09T10:20:52.686Z,1.75
2023-01-09T10:23:10.745Z,1.65
2023-01-09T10:25:39.568Z,1.55
2023-01-09T10:28:03.544Z,2.13
2023-01-09T10:30:31.924Z,1.30
2023-01-09T10:33:14.198Z,1.20
2023-01-09T10:35:47.012Z,1.60
2023-01-09T10:38:01.973Z,1.52
2023-01-09T10:40:21.251Z,1.40
2023-01-09T10:42:31.161Z,1.30
2023-01-09T10:47:26.046Z,1.70
2023-01-09T10:49:35.552Z,1.23
2023-01-09T10:51:46.080Z,1.58
2023-01-09T10:54:05.516Z,1.55
2023-01-09T10:56:25.863Z,1.90
2023-01-09T10:58:41.068Z,1.20
2023-01-09T11:00:44.806Z,1.50
2023-01-09T11:02:49.681Z,1.60
2023-01-09T11:05:01.015Z,1.50
2023-01-09T11:07:07.477Z,1.40
2023-01-09T11:09:09.775Z,1.40
2023-01-09T11:11:31.920Z,1.95
2023-01-09T11:13:41.988Z,1.40
2023-01-09T11:18:28.173Z,1.50
2023-01-09T11:20:37.682Z,1.77
2023-01-09T11:22:45.338Z,1.10
2023-01-09T11:25:02.089Z,1.80
2023-01-09T11:27:40.350Z,1.60
2023-01-09T11:30:15.637Z,1.20
2023-01-09T11:32:23.014Z,1.40
2023-01-09T11:34:31.551Z,1.20
2023-01-09T11:36:39.480Z,1.80
2023-01-09T11:38:53.895Z,1.40
2023-01-09T11:40:59.610Z,1.67
2023-01-09T11:43:14.517Z,1.10
2023-01-09T11:45:20.774Z,1.67
2023-01-09T11:47:39.793Z,1.27
2023-01-09T11:49:41.708Z,1.50
2023-01-09T11:51:44.624Z,1.88
2023-01-09T11:53:55.039Z,1.10
2023-01-09T11:55:59.403Z,1.23
2023-01-09T11:58:01.198Z,1.02
2023-01-09T12:00:13.759Z,1.38
2023-01-09T12:02:52.608Z,1.10
2023-01-09T12:04:59.321Z,1.40
2023-01-09T12:07:24.781Z,1.30
2023-01-09T12:09:37.079Z,1.10
2023-01-09T12:11:47.878Z,1.20
2023-01-09T12:14:17.524Z,1.10
2023-01-09T12:16:26.626Z,1.73
2023-01-09T12:18:40.767Z,1.45
2023-01-09T12:20:58.652Z,1.13
2023-01-09T12:23:15.743Z,1.38
2023-01-09T12:25:30.999Z,1.75
2023-01-09T12:27:56.741Z,1.25
2023-01-09T12:30:15.395Z,1.38
2023-01-09T12:32:28.850Z,1.60
2023-01-09T12:34:48.622Z,1.02
2023-01-09T12:37:00.332Z,1.20
2023-01-09T12:39:11.208Z,1.60
2023-01-09T12:41:25.549Z,1.38
2023-01-09T12:43:38.033Z,1.50
2023-01-09T12:45:57.851Z,1.80
2023-01-09T12:48:04.227Z,1.30
2023-01-09T12:50:23.718Z,1.63
2023-01-09T12:52:31.210Z,1.42
2023-01-09T12:54:39.880Z,1.52
2023-01-09T12:56:45.442Z,1.67
2023-01-09T12:58:51.063Z,1.27
2023-01-09T13:00:55.671Z,1.15
2023-01-09T13:03:12.452Z,1.15
2023-01-09T13:05:25.000Z,1.38
2023-01-09T13:07:30.680Z,1.35
2023-01-09T13:09:43.279Z,1.20
2023-01-09T13:11:49.981Z,1.30
2023-01-09T13:13:58.424Z,1.50
2023-01-09T13:16:06.168Z,1.95
2023-01-09T13:18:14.839Z,1.40
2023-01-09T13:20:23.136Z,2.08
2023-01-09T13:22:28.643Z,1.70
2023-01-09T13:24:36.843Z,1.23
2023-01-09T13:26:43.103Z,1.90
2023-01-09T13:28:48.195Z,1.42
2023-01-09T13:31:14.442Z,1.25
2023-01-09T13:33:20.135Z,0.93
2023-01-09T13:35:25.345Z,0.70
2023-01-09T13:37:38.312Z,0.93
2023-01-09T13:39:40.024Z,0.70
2023-01-09T13:41:48.012Z,0.60
2023-01-09T13:43:54.330Z,0.90
2023-01-09T13:45:58.441Z,0.98
2023-01-09T13:48:28.233Z,0.90
2023-01-09T13:50:31.372Z,1.92
2023-01-09T13:52:36.616Z,1.23
2023-01-09T13:55:00.792Z,1.30
2023-01-09T13:57:27.225Z,1.33
2023-01-09T13:59:29.114Z,0.90
2023-01-09T14:01:42.491Z,1.50
2023-01-09T14:04:04.624Z,1.90
2023-01-09T14:06:16.768Z,1.70
2023-01-09T14:08:20.140Z,1.80
2023-01-09T14:10:24.524Z,1.83
2023-01-09T14:12:28.946Z,1.58
2023-01-09T14:14:34.704Z,2.17
2023-01-09T14:16:37.178Z,1.85
2023-01-09T14:18:45.865Z,1.45
2023-01-09T14:20:56.404Z,1.60
2023-01-09T14:23:18.188Z,1.75
2023-01-09T14:25:25.415Z,1.25
2023-01-09T14:28:04.409Z,1.40
2023-01-09T14:30:32.391Z,1.48
2023-01-09T14:32:42.270Z,1.50
2023-01-09T14:34:47.692Z,1.30
2023-01-09T14:36:49.725Z,1.27
2023-01-09T14:38:54.828Z,1.08
2023-01-09T14:41:01.700Z,1.30
2023-01-09T14:43:14.644Z,1.00
2023-01-09T14:45:20.717Z,1.38
2023-01-09T14:47:34.721Z,1.00
2023-01-09T14:49:42.374Z,1.10
2023-01-09T14:51:47.250Z,2.03
2023-01-09T14:53:52.757Z,0.95
2023-01-09T14:55:57.604Z,1.50
2023-01-09T14:58:10.844Z,1.17
2023-01-09T15:00:17.962Z,1.15
2023-01-09T15:02:23.337Z,1.30
2023-01-09T15:04:31.515Z,1.60
2023-01-09T15:06:37.745Z,1.65
2023-01-09T15:08:39.693Z,1.33
2023-01-09T15:10:46.433Z,1.00
2023-01-09T15:12:53.795Z,1.10
2023-01-09T15:14:59.235Z,1.38
2023-01-09T15:17:01.560Z,1.40
2023-01-09T15:19:07.646Z,1.10
2023-01-09T15:21:17.962Z,1.13
2023-01-09T15:23:23.852Z,0.80
2023-01-09T15:25:37.757Z,1.40
2023-01-09T15:27:48.581Z,1.10
2023-01-09T15:29:51.412Z,0.95
2023-01-09T15:31:55.724Z,3.50
2023-01-09T15:33:57.618Z,1.65
2023-01-09T15:35:59.807Z,1.10
2023-01-09T15:38:01.850Z,1.23
2023-01-09T15:40:06.782Z,1.65
2023-01-09T15:42:20.903Z,1.35
2023-01-09T15:44:28.785Z,1.35
2023-01-09T15:46:30.604Z,1.30
2023-01-09T15:48:33.540Z,1.00
2023-01-09T15:50:35.663Z,1.38
2023-01-09T15:52:38.329Z,1.00
2023-01-09T15:54:40.772Z,1.05
2023-01-09T15:56:44.403Z,1.52
2023-01-09T15:58:51.210Z,1.10
2023-01-09T16:00:58.364Z,1.40
2023-01-09T16:03:01.893Z,1.67
2023-01-09T16:05:07.135Z,1.27
2023-01-09T16:07:14.058Z,1.38
2023-01-09T16:09:17.457Z,1.80
2023-01-09T16:11:24.156Z,1.58
2023-01-09T16:13:28.841Z,1.70
2023-01-09T16:15:34.683Z,4.20
2023-01-09T16:17:38.196Z,7.07
2023-01-09T16:19:46.906Z,2.83
2023-01-09T16:21:57.244Z,1.50
2023-01-09T16:24:00.147Z,1.20
2023-01-09T16:26:12.643Z,1.50
2023-01-09T16:28:20.016Z,1.50
2023-01-09T16:30:26.749Z,1.80
2023-01-09T16:32:30.719Z,1.30
2023-01-09T16:34:36.191Z,1.67
2023-01-09T16:36:37.878Z,2.10
2023-01-09T16:38:41.675Z,2.50
2023-01-09T16:41:01.003Z,1.80
2023-01-09T16:43:02.667Z,2.17
2023-01-09T16:45:19.053Z,2.33
2023-01-09T16:47:20.678Z,1.85
2023-01-09T16:49:25.151Z,1.92
2023-01-09T16:51:28.524Z,1.65
2023-01-09T16:53:30.325Z,2.20
2023-01-09T16:55:32.206Z,1.90
2023-01-09T16:57:34.933Z,1.95
2023-01-09T16:59:36.650Z,1.60
2023-01-09T17:01:38.390Z,1.80
2023-01-09T17:03:42.862Z,1.75
2023-01-09T17:05:51.495Z,1.70
2023-01-09T17:07:57.672Z,2.00
2023-01-09T17:09:59.303Z,1.95
2023-01-09T17:12:00.956Z,1.45
2023-01-09T17:14:03.015Z,1.60
2023-01-09T17:16:05.047Z,2.03
2023-01-09T17:18:12.983Z,1.70
2023-01-09T17:20:18.232Z,1.58
2023-01-09T17:22:22.676Z,1.75
2023-01-09T17:24:26.002Z,1.80
2023-01-09T17:26:27.618Z,2.03
2023-01-09T17:28:30.194Z,1.60
2023-01-09T17:30:31.828Z,1.80
2023-01-09T17:32:36.347Z,2.13
2023-01-09T17:34:37.963Z,1.77
2023-01-09T17:36:43.306Z,2.00
2023-01-09T17:38:44.991Z,1.95
2023-01-09T17:40:48.843Z,1.50
2023-01-09T17:42:52.488Z,1.30
2023-01-09T17:44:54.159Z,1.35
2023-01-09T17:46:55.781Z,1.70
2023-01-09T17:48:57.981Z,1.80
2023-01-09T17:50:59.706Z,1.60
2023-01-09T17:53:01.332Z,1.98
2023-01-09T17:55:03.063Z,2.13
2023-01-09T17:57:07.060Z,1.77
2023-01-09T17:59:11.499Z,2.10
2023-01-09T18:01:14.856Z,1.33
2023-01-09T18:03:16.567Z,2.00
2023-01-09T18:05:18.290Z,1.77
2023-01-09T18:07:20.293Z,1.42
2023-01-09T18:09:22.075Z,1.10
2023-01-09T18:11:23.745Z,1.60
2023-01-09T18:13:27.396Z,3.55
2023-01-09T18:15:29.048Z,3.67
2023-01-09T18:17:33.385Z,2.25
2023-01-09T18:19:35.177Z,1.48
2023-01-09T18:21:36.872Z,1.20
2023-01-09T18:23:38.557Z,1.40
2023-01-09T18:25:41.149Z,1.30
2023-01-09T18:27:42.875Z,0.90
2023-01-09T18:29:46.095Z,1.50
2023-01-09T18:31:47.903Z,0.90
2023-01-09T18:33:54.258Z,1.10
2023-01-09T18:35:55.830Z,0.80
2023-01-09T18:37:57.494Z,1.30
2023-01-09T18:40:00.418Z,1.00
2023-01-09T18:42:02.172Z,1.10
2023-01-09T18:44:03.887Z,1.13
2023-01-09T18:46:10.472Z,1.00
2023-01-09T18:48:12.213Z,1.13
2023-01-09T18:50:13.920Z,1.10
2023-01-09T18:52:18.771Z,1.15
2023-01-09T18:54:22.879Z,1.20
2023-01-09T18:56:24.835Z,1.30
2023-01-09T18:58:26.508Z,1.25
2023-01-09T19:00:28.137Z,1.35
2023-01-09T19:02:31.169Z,1.20
2023-01-09T19:04:32.907Z,1.20
2023-01-09T19:06:36.740Z,1.45
2023-01-09T19:08:38.748Z,1.30
2023-01-09T19:10:40.597Z,2.00
2023-01-09T19:12:42.191Z,1.10
2023-01-09T19:14:43.846Z,1.40
2023-01-09T19:16:45.527Z,1.20
2023-01-09T19:18:48.662Z,1.20
2023-01-09T19:20:50.440Z,1.38
2023-01-09T19:22:52.309Z,1.50
2023-01-09T19:24:53.956Z,1.08
2023-01-09T19:26:55.570Z,1.75
2023-01-09T19:28:57.524Z,1.42
2023-01-09T19:30:59.460Z,1.60
2023-01-09T19:33:05.560Z,1.90
2023-01-09T19:35:09.359Z,1.55
2023-01-09T19:37:11.199Z,1.40
2023-01-09T19:39:13.423Z,1.63
2023-01-09T19:41:17.507Z,2.13
2023-01-09T19:43:21.093Z,1.85
2023-01-09T19:45:23.307Z,1.60
2023-01-09T19:47:25.314Z,1.98
2023-01-09T19:49:26.989Z,1.52
2023-01-09T19:51:30.744Z,1.50
2023-01-09T19:53:33.578Z,1.48
2023-01-09T19:55:35.321Z,1.60
2023-01-09T19:57:37.331Z,1.50
2023-01-09T19:59:41.218Z,1.40
2023-01-09T20:01:43.171Z,1.50
2023-01-09T20:03:46.586Z,1.23
2023-01-09T20:05:48.377Z,1.40
2023-01-09T20:07:54.977Z,1.33
2023-01-09T20:09:56.759Z,1.40
2023-01-09T20:11:58.725Z,1.90
2023-01-09T20:14:00.992Z,1.20
2023-01-09T20:16:03.717Z,1.50
2023-01-09T20:18:06.266Z,2.22
2023-01-09T20:20:09.467Z,2.10
2023-01-09T20:22:11.234Z,1.60
2023-01-09T20:24:17.029Z,1.45
2023-01-09T20:26:19.817Z,1.30
2023-01-09T20:28:22.395Z,2.15
2023-01-09T20:30:24.217Z,1.90
2023-01-09T20:32:25.936Z,1.98
2023-01-09T20:34:38.308Z,2.08
2023-01-09T20:36:40.266Z,2.15
2023-01-09T20:38:42.891Z,2.35
2023-01-09T20:40:46.052Z,2.95
2023-01-09T20:42:48.063Z,2.90
2023-01-09T20:44:49.731Z,2.33
2023-01-09T20:46:51.469Z,4.32
2023-01-09T20:48:55.743Z,3.95
2023-01-09T20:51:04.043Z,3.58
2023-01-09T20:53:07.823Z,2.85
2023-01-09T20:55:10.310Z,2.92
2023-01-09T20:57:13.359Z,2.88
2023-01-09T20:59:18.264Z,2.67
2023-01-09T21:01:20.746Z,2.20
2023-01-09T21:03:22.930Z,2.22
2023-01-09T21:05:25.154Z,2.30
2023-01-09T21:07:27.124Z,2.70
2023-01-09T21:09:29.006Z,2.65
2023-01-09T21:11:31.250Z,2.67
2023-01-09T21:13:35.133Z,2.97
2023-01-09T21:15:51.722Z,2.42
2023-01-09T21:17:53.568Z,3.00
2023-01-09T21:19:55.377Z,3.72
2023-01-09T21:22:01.276Z,3.88
2023-01-09T21:24:06.067Z,6.22
2023-01-09T21:26:08.731Z,4.72
2023-01-09T21:28:13.475Z,4.25
2023-01-09T21:30:16.761Z,3.75
2023-01-09T21:32:18.439Z,3.10
2023-01-09T21:34:21.426Z,3.70
2023-01-09T21:36:23.145Z,3.10
2023-01-09T21:38:26.078Z,4.28
2023-01-09T21:40:27.868Z,3.25
2023-01-09T21:42:31.765Z,3.47
2023-01-09T21:44:33.588Z,2.90
2023-01-09T21:46:36.676Z,3.20
2023-01-09T21:48:38.331Z,2.70
2023-01-09T21:50:40.285Z,2.83
2023-01-09T21:52:41.975Z,2.88
2023-01-09T21:54:43.604Z,3.30
2023-01-09T21:56:45.702Z,3.00
2023-01-09T21:58:47.579Z,3.33
2023-01-09T22:00:49.220Z,2.80
2023-01-09T22:02:52.382Z,3.15
2023-01-09T22:04:54.098Z,2.40
2023-01-09T22:06:55.797Z,2.50
2023-01-09T22:08:57.529Z,3.00
2023-01-09T22:11:02.168Z,2.95
2023-01-09T22:13:03.851Z,2.20
2023-01-09T22:15:06.693Z,2.20
2023-01-09T22:17:08.411Z,2.10
2023-01-09T22:19:12.606Z,2.17
2023-01-09T22:21:14.548Z,3.35
2023-01-09T22:23:16.358Z,2.55
2023-01-09T22:25:18.290Z,2.58
2023-01-09T22:27:19.974Z,3.35
2023-01-09T22:29:29.562Z,2.42
2023-01-09T22:31:31.244Z,2.47
2023-01-09T22:33:32.907Z,2.63
2023-01-09T22:35:44.028Z,3.05
2023-01-09T22:37:53.432Z,3.03
2023-01-09T22:39:55.391Z,2.42
2023-01-09T22:41:57.070Z,2.50
2023-01-09T22:43:59.276Z,2.40
2023-01-09T22:46:02.242Z,2.45
2023-01-09T22:48:04.300Z,2.65
2023-01-09T22:50:07.675Z,3.20
2023-01-09T22:52:11.002Z,2.08
2023-01-09T22:54:12.623Z,1.77
2023-01-09T22:56:17.175Z,2.10
2023-01-09T22:58:18.886Z,1.98
2023-01-09T23:00:20.801Z,2.10
2023-01-09T23:02:22.747Z,2.00
2023-01-09T23:04:24.476Z,1.67
2023-01-09T23:06:26.199Z,1.88
2023-01-09T23:08:29.860Z,1.80
2023-01-09T23:10:31.551Z,1.95
2023-01-09T23:12:33.471Z,1.92
2023-01-09T23:14:37.140Z,1.80
2023-01-09T23:16:39.034Z,1.88
2023-01-09T23:18:40.928Z,2.00
2023-01-09T23:20:50.179Z,1.80
2023-01-09T23:22:51.954Z,2.40
2023-01-09T23:24:55.004Z,2.45
2023-01-09T23:26:57.282Z,2.50
2023-01-09T23:28:58.957Z,2.75
2023-01-09T23:31:00.589Z,3.05
2023-01-09T23:33:02.234Z,2.97
2023-01-09T23:35:04.580Z,2.60
2023-01-09T23:37:06.220Z,2.30
2023-01-09T23:39:07.991Z,2.70
2023-01-09T23:41:11.109Z,2.10
2023-01-09T23:43:14.708Z,1.80
2023-01-09T23:45:16.449Z,1.92
2023-01-09T23:47:18.092Z,1.98
2023-01-09T23:49:19.773Z,2.10
2023-01-09T23:51:21.431Z,2.63
2023-01-09T23:53:23.400Z,2.78
2023-01-09T23:55:25.297Z,2.22
2023-01-09T23:57:28.508Z,2.50
2023-01-09T23:59:30.257Z,2.45
